createdAt,value
2019-04-04T00:03:30.249Z,15.10
2019-04-04T00:08:32.331Z,13.98
2019-04-04T00:13:34.438Z,12.75
2019-04-04T00:18:36.482Z,15.25
2019-04-04T00:23:38.690Z,14.55
2019-04-04T00:28:40.753Z,14.98
2019-04-04T00:33:42.833Z,14.45
2019-04-04T00:38:44.982Z,16.75
2019-04-04T00:43:47.090Z,17.95
2019-04-04T00:48:49.437Z,20.17
2019-04-04T00:53:51.586Z,22.13
2019-04-04T00:58:53.689Z,22.73
2019-04-04T01:03:55.796Z,24.20
2019-04-04T01:08:57.851Z,22.67
2019-04-04T01:13:59.927Z,22.50
2019-04-04T01:19:01.984Z,29.32
2019-04-04T01:24:04.170Z,24.60
2019-04-04T01:29:06.320Z,25.12
2019-04-04T01:34:08.351Z,23.65
2019-04-04T01:39:10.431Z,23.92
2019-04-04T01:44:12.499Z,23.25
2019-04-04T01:49:14.612Z,27.55
2019-04-04T01:54:16.738Z,27.40
2019-04-04T01:59:18.811Z,25.05
2019-04-04T02:04:20.885Z,25.97
2019-04-04T02:09:22.879Z,24.47
2019-04-04T02:14:24.930Z,24.85
2019-04-04T02:19:27.035Z,27.55
2019-04-04T02:24:29.758Z,25.40
2019-04-04T02:29:32.948Z,29.23
2019-04-04T02:34:37.705Z,30.30
2019-04-04T02:39:39.359Z,31.42
2019-04-04T02:44:41.462Z,30.62
2019-04-04T02:49:43.577Z,32.98
2019-04-04T02:54:45.619Z,31.85
2019-04-04T02:59:47.773Z,32.95
2019-04-04T03:04:49.848Z,30.75
2019-04-04T03:09:52.006Z,34.10
2019-04-04T03:14:54.056Z,34.90
2019-04-04T03:19:56.132Z,30.37
2019-04-04T03:24:58.153Z,35.40
2019-04-04T03:30:00.213Z,35.25
2019-04-04T03:35:02.336Z,35.48
2019-04-04T03:40:04.525Z,32.35
2019-04-04T03:45:06.699Z,34.75
2019-04-04T03:50:08.964Z,36.05
2019-04-04T03:55:10.985Z,39.33
2019-04-04T04:00:26.400Z,31.27
2019-04-04T04:05:33.969Z,33.08
2019-04-04T04:10:34.011Z,36.20
2019-04-04T04:15:36.153Z,36.95
2019-04-04T04:20:38.300Z,41.63
2019-04-04T04:25:43.333Z,39.13
2019-04-04T04:30:45.395Z,38.48
2019-04-04T04:35:47.499Z,35.90
2019-04-04T04:40:49.544Z,38.45
2019-04-04T04:45:51.657Z,40.45
2019-04-04T04:50:53.750Z,42.05
2019-04-04T04:55:59.490Z,45.88
2019-04-04T05:00:59.807Z,40.00
2019-04-04T05:06:02.627Z,44.13
2019-04-04T05:11:05.438Z,42.70
2019-04-04T05:16:08.968Z,44.18
2019-04-04T05:21:24.145Z,43.65
2019-04-04T05:26:15.170Z,43.02
2019-04-04T05:31:18.258Z,44.08
2019-04-04T05:36:20.901Z,44.85
2019-04-04T05:41:22.989Z,42.65
2019-04-04T05:46:25.042Z,50.95
2019-04-04T05:51:27.213Z,45.40
2019-04-04T05:56:29.195Z,43.90
2019-04-04T06:01:34.931Z,46.68
2019-04-04T06:06:35.462Z,47.20
2019-04-04T06:11:37.669Z,41.00
2019-04-04T06:16:39.723Z,38.95
2019-04-04T06:21:41.846Z,40.25
2019-04-04T06:26:43.924Z,38.95
2019-04-04T06:31:45.938Z,45.83
2019-04-04T06:36:49.097Z,44.77
2019-04-04T06:41:51.882Z,41.13
2019-04-04T06:46:54.213Z,44.20
2019-04-04T06:51:56.420Z,53.60
2019-04-04T06:56:59.301Z,42.58
2019-04-04T07:02:01.892Z,41.20
2019-04-04T07:07:03.991Z,39.95
2019-04-04T07:12:06.758Z,42.23
2019-04-04T07:17:09.572Z,38.98
2019-04-04T07:22:11.766Z,34.45
2019-04-04T07:27:14.207Z,34.67
2019-04-04T07:32:17.858Z,36.95
2019-04-04T07:37:22.031Z,38.75
2019-04-04T07:42:23.804Z,29.45
2019-04-04T07:47:25.837Z,32.88
2019-04-04T07:52:27.960Z,30.82
2019-04-04T07:57:30.438Z,26.30
2019-04-04T08:02:32.916Z,24.20
2019-04-04T08:07:34.966Z,25.10
2019-04-04T08:12:36.985Z,24.20
2019-04-04T08:17:39.682Z,20.60
2019-04-04T08:22:41.727Z,23.75
2019-04-04T08:27:43.837Z,17.70
2019-04-04T08:32:45.983Z,25.60
2019-04-04T08:37:48.117Z,22.22
2019-04-04T08:42:50.675Z,20.30
2019-04-04T08:47:52.718Z,23.52
2019-04-04T08:52:54.831Z,20.97
2019-04-04T08:57:56.860Z,21.65
2019-04-04T09:02:59.010Z,21.55
2019-04-04T09:08:01.072Z,16.42
2019-04-04T09:13:03.160Z,17.30
2019-04-04T09:18:05.579Z,35.95
2019-04-04T09:23:07.589Z,19.05
2019-04-04T09:28:09.681Z,15.83
2019-04-04T09:33:11.763Z,17.35
2019-04-04T09:38:13.801Z,15.48
2019-04-04T09:43:15.876Z,14.30
2019-04-04T09:48:17.957Z,15.70
2019-04-04T09:53:20.151Z,14.80
2019-04-04T09:58:22.535Z,15.90
2019-04-04T10:03:24.614Z,17.60
2019-04-04T10:08:26.609Z,14.45
2019-04-04T10:13:28.670Z,14.78
2019-04-04T10:18:30.744Z,11.95
2019-04-04T10:23:32.799Z,10.53
2019-04-04T10:28:34.944Z,13.98
2019-04-04T10:33:37.028Z,12.40
2019-04-04T10:38:39.152Z,9.30
2019-04-04T10:43:41.157Z,9.48
2019-04-04T10:48:43.229Z,13.40
2019-04-04T10:53:45.327Z,9.83
2019-04-04T10:58:47.422Z,11.68
2019-04-04T11:03:49.497Z,9.35
2019-04-04T11:08:51.648Z,9.30
2019-04-04T11:13:53.684Z,9.63
2019-04-04T11:18:55.758Z,9.00
2019-04-04T11:23:57.899Z,8.75
2019-04-04T11:29:00.005Z,8.08
2019-04-04T11:34:02.113Z,8.28
2019-04-04T11:39:05.942Z,8.78
2019-04-04T11:44:08.040Z,8.55
2019-04-04T11:49:10.133Z,10.45
2019-04-04T11:54:12.287Z,8.63
2019-04-04T11:59:14.361Z,7.95
2019-04-04T12:04:16.383Z,9.60
2019-04-04T12:09:18.777Z,9.80
2019-04-04T12:14:20.892Z,10.15
2019-04-04T12:19:22.942Z,9.18
2019-04-04T12:24:25.047Z,9.98
2019-04-04T12:29:27.157Z,8.75
2019-04-04T12:34:29.214Z,8.98
2019-04-04T12:39:31.247Z,9.78
2019-04-04T12:44:33.325Z,8.25
2019-04-04T12:49:35.411Z,8.08
2019-04-04T12:54:37.493Z,11.43
2019-04-04T12:59:39.617Z,7.85
2019-04-04T13:04:41.606Z,7.72
2019-04-04T13:09:43.818Z,8.93
2019-04-04T13:14:45.887Z,10.10
2019-04-04T13:19:48.302Z,11.48
2019-04-04T13:24:50.374Z,9.98
2019-04-04T13:29:52.417Z,9.00
2019-04-04T13:34:59.409Z,8.70
2019-04-04T13:39:58.387Z,8.58
2019-04-04T13:45:00.441Z,8.70
2019-04-04T13:50:03.073Z,8.10
2019-04-04T13:55:05.450Z,8.98
2019-04-04T14:00:10.432Z,7.20
2019-04-04T14:05:14.427Z,7.70
2019-04-04T14:10:18.010Z,8.50
2019-04-04T14:15:20.406Z,8.78
2019-04-04T14:20:22.416Z,10.30
2019-04-04T14:25:24.447Z,8.10
2019-04-04T14:30:26.457Z,7.17
2019-04-04T14:35:28.489Z,9.10
2019-04-04T14:40:30.557Z,7.20
2019-04-04T14:45:32.626Z,7.15
2019-04-04T14:50:34.714Z,4.97
2019-04-04T14:55:36.829Z,11.78
2019-04-04T15:00:38.921Z,10.20
2019-04-04T15:05:41.009Z,8.53
2019-04-04T15:10:43.012Z,5.83
2019-04-04T15:16:10.110Z,5.05
2019-04-04T15:21:12.961Z,4.83
2019-04-04T15:26:15.055Z,5.53
2019-04-04T15:31:17.104Z,5.22
2019-04-04T15:36:19.526Z,6.12
2019-04-04T15:41:21.551Z,5.92
2019-04-04T15:46:23.680Z,7.67
2019-04-04T15:51:25.753Z,7.22
2019-04-04T15:56:27.848Z,11.68
2019-04-04T16:01:29.883Z,7.28
2019-04-04T16:06:31.904Z,8.63
2019-04-04T16:11:33.953Z,6.90
2019-04-04T16:16:36.004Z,8.30
2019-04-04T16:21:38.083Z,7.47
2019-04-04T16:26:40.147Z,6.83
2019-04-04T16:31:42.211Z,7.97
2019-04-04T16:36:44.243Z,6.92
2019-04-04T16:41:46.246Z,7.22
2019-04-04T16:46:48.858Z,5.20
2019-04-04T16:51:50.914Z,7.75
2019-04-04T16:56:52.976Z,9.35
2019-04-04T17:01:55.039Z,6.67
2019-04-04T17:06:57.135Z,7.53
2019-04-04T17:11:59.183Z,6.12
2019-04-04T17:17:01.259Z,6.83
2019-04-04T17:22:03.274Z,5.78
2019-04-04T17:27:05.279Z,6.20
2019-04-04T17:32:08.682Z,6.22
2019-04-04T17:37:10.826Z,6.80
2019-04-04T17:42:12.919Z,8.43
2019-04-04T17:47:14.964Z,9.60
2019-04-04T17:52:17.268Z,8.53
2019-04-04T17:57:19.403Z,5.83
2019-04-04T18:02:21.407Z,9.10
2019-04-04T18:07:23.660Z,10.00
2019-04-04T18:12:25.744Z,11.90
2019-04-04T18:17:27.766Z,9.70
2019-04-04T18:22:29.817Z,8.33
2019-04-04T18:27:31.921Z,7.78
2019-04-04T18:32:33.978Z,8.05
2019-04-04T18:37:36.134Z,6.83
2019-04-04T18:42:38.254Z,6.70
2019-04-04T18:47:40.423Z,7.22
2019-04-04T18:52:42.566Z,7.05
2019-04-04T18:57:44.642Z,8.60
2019-04-04T19:02:46.768Z,8.13
2019-04-04T19:07:48.855Z,8.43
2019-04-04T19:12:50.879Z,8.98
2019-04-04T19:17:52.974Z,12.10
2019-04-04T19:22:55.065Z,9.23
2019-04-04T19:27:57.166Z,9.45
2019-04-04T19:32:59.417Z,8.98
2019-04-04T19:38:01.513Z,11.05
2019-04-04T19:43:03.599Z,10.35
2019-04-04T19:48:05.680Z,10.63
2019-04-04T19:53:07.763Z,10.93
2019-04-04T19:58:09.896Z,11.80
2019-04-04T20:03:12.207Z,11.45
2019-04-04T20:08:14.249Z,9.78
2019-04-04T20:13:16.360Z,12.63
2019-04-04T20:18:18.453Z,11.50
2019-04-04T20:23:20.538Z,13.13
2019-04-04T20:28:22.616Z,13.53
2019-04-04T20:33:24.965Z,14.18
2019-04-04T20:38:27.070Z,12.70
2019-04-04T20:43:29.276Z,15.93
2019-04-04T20:48:31.324Z,15.60
2019-04-04T20:53:33.368Z,13.53
2019-04-04T20:58:35.483Z,12.88
2019-04-04T21:03:37.544Z,14.63
2019-04-04T21:08:39.617Z,11.55
2019-04-04T21:13:41.940Z,12.45
2019-04-04T21:18:44.049Z,14.65
2019-04-04T21:23:46.150Z,15.25
2019-04-04T21:28:48.215Z,14.00
2019-04-04T21:33:50.266Z,13.55
2019-04-04T21:38:52.331Z,14.13
2019-04-04T21:43:54.387Z,13.20
2019-04-04T21:48:56.462Z,15.03
2019-04-04T21:53:58.498Z,12.15
2019-04-04T21:59:00.724Z,10.30
2019-04-04T22:04:02.808Z,11.33
2019-04-04T22:09:08.154Z,10.85
2019-04-04T22:14:21.036Z,10.82
2019-04-04T22:19:14.161Z,10.03
2019-04-04T22:24:16.246Z,10.20
2019-04-04T22:29:18.240Z,9.10
2019-04-04T22:34:20.309Z,8.50
2019-04-04T22:39:22.358Z,9.78
2019-04-04T22:44:34.214Z,8.18
2019-04-04T22:49:28.508Z,9.05
2019-04-04T22:54:30.536Z,6.22
2019-04-04T22:59:32.605Z,7.10
2019-04-04T23:04:34.668Z,7.75
2019-04-04T23:09:36.758Z,9.03
2019-04-04T23:14:47.866Z,7.17
2019-04-04T23:19:42.787Z,7.45
2019-04-04T23:24:44.872Z,8.23
2019-04-04T23:29:46.941Z,7.55
2019-04-04T23:34:49.028Z,7.30
2019-04-04T23:39:51.133Z,7.55
2019-04-04T23:45:00.772Z,7.33
2019-04-04T23:49:57.276Z,13.83
2019-04-04T23:54:59.414Z,14.40
